createdAt,value
2023-03-10T00:00:40.112Z,19.90
2023-03-10T00:03:06.960Z,19.02
2023-03-10T00:05:34.409Z,21.85
2023-03-10T00:08:01.375Z,19.05
2023-03-10T00:10:28.315Z,19.88
2023-03-10T00:12:55.119Z,20.05
2023-03-10T00:15:23.255Z,19.83
2023-03-10T00:17:50.319Z,19.05
2023-03-10T00:20:17.191Z,19.17
2023-03-10T00:22:43.956Z,19.02
2023-03-10T00:25:11.389Z,20.05
2023-03-10T00:27:38.343Z,19.88
2023-03-10T00:30:05.932Z,17.60
2023-03-10T00:32:35.966Z,18.38
2023-03-10T00:35:03.122Z,19.80
2023-03-10T00:37:29.895Z,18.73
2023-03-10T00:39:57.114Z,17.23
2023-03-10T00:42:23.894Z,17.25
2023-03-10T00:44:50.655Z,17.58
2023-03-10T00:47:17.437Z,17.65
2023-03-10T00:49:44.196Z,17.40
2023-03-10T00:52:10.968Z,18.38
2023-03-10T00:54:41.140Z,17.40
2023-03-10T00:57:09.226Z,18.13
2023-03-10T00:59:49.468Z,18.25
2023-03-10T01:02:20.439Z,18.38
2023-03-10T01:04:48.402Z,15.52
2023-03-10T01:07:15.208Z,15.75
2023-03-10T01:09:41.962Z,17.02
2023-03-10T01:12:09.265Z,17.27
2023-03-10T01:14:36.154Z,15.77
2023-03-10T01:17:04.218Z,16.02
2023-03-10T01:19:31.253Z,16.65
2023-03-10T01:21:58.027Z,16.73
2023-03-10T01:24:24.763Z,18.63
2023-03-10T01:26:51.541Z,17.35
2023-03-10T01:29:18.313Z,15.32
2023-03-10T01:31:45.126Z,17.42
2023-03-10T01:34:11.939Z,18.90
2023-03-10T01:36:41.653Z,16.33
2023-03-10T01:39:08.437Z,15.15
2023-03-10T01:41:39.580Z,15.65
2023-03-10T01:44:14.282Z,16.10
2023-03-10T01:46:54.378Z,17.25
2023-03-10T01:49:43.870Z,15.70
2023-03-10T01:52:22.877Z,14.52
2023-03-10T01:54:58.420Z,15.07
2023-03-10T01:57:33.169Z,15.38
2023-03-10T02:00:00.512Z,13.65
2023-03-10T02:02:31.572Z,15.25
2023-03-10T02:04:59.285Z,15.45
2023-03-10T02:07:30.106Z,14.75
2023-03-10T02:09:57.106Z,13.32
2023-03-10T02:12:24.052Z,13.35
2023-03-10T02:14:53.012Z,13.00
2023-03-10T02:17:23.857Z,13.98
2023-03-10T02:20:16.434Z,14.25
2023-03-10T02:22:43.275Z,13.75
2023-03-10T02:25:53.532Z,15.80
2023-03-10T02:28:20.378Z,13.18
2023-03-10T02:30:50.869Z,12.70
2023-03-10T02:33:26.983Z,18.05
2023-03-10T02:35:54.166Z,14.00
2023-03-10T02:38:21.247Z,13.40
2023-03-10T02:40:51.719Z,14.70
2023-03-10T02:43:34.404Z,12.05
2023-03-10T02:46:05.076Z,13.38
2023-03-10T02:48:38.097Z,12.02
2023-03-10T02:51:11.376Z,13.32
2023-03-10T02:53:38.158Z,12.27
2023-03-10T02:56:05.378Z,12.55
2023-03-10T02:58:33.265Z,11.77
2023-03-10T03:01:00.394Z,12.50
2023-03-10T03:03:27.746Z,13.48
2023-03-10T03:05:54.552Z,11.40
2023-03-10T03:08:21.545Z,12.88
2023-03-10T03:10:49.147Z,12.10
2023-03-10T03:13:16.433Z,11.52
2023-03-10T03:15:43.521Z,11.40
2023-03-10T03:18:10.582Z,12.90
2023-03-10T03:20:40.943Z,11.82
2023-03-10T03:23:08.558Z,11.88
2023-03-10T03:25:40.106Z,10.13
2023-03-10T03:28:12.480Z,10.45
2023-03-10T03:30:40.238Z,10.48
2023-03-10T03:33:08.580Z,11.23
2023-03-10T03:35:37.644Z,10.77
2023-03-10T03:38:05.421Z,9.57
2023-03-10T03:40:35.022Z,9.75
2023-03-10T03:43:02.477Z,9.68
2023-03-10T03:45:32.173Z,8.57
2023-03-10T03:47:59.588Z,8.85
2023-03-10T03:50:27.687Z,7.78
2023-03-10T03:52:54.597Z,8.95
2023-03-10T03:55:21.631Z,8.85
2023-03-10T03:57:49.050Z,9.73
2023-03-10T04:00:22.778Z,9.10
2023-03-10T04:02:50.153Z,8.55
2023-03-10T04:05:17.404Z,7.30
2023-03-10T04:07:45.792Z,9.00
2023-03-10T04:10:16.734Z,8.50
2023-03-10T04:12:43.727Z,7.82
2023-03-10T04:15:11.623Z,9.32
2023-03-10T04:17:38.385Z,8.40
2023-03-10T04:20:08.937Z,8.15
2023-03-10T04:22:36.878Z,8.20
2023-03-10T04:25:06.159Z,6.97
2023-03-10T04:27:33.707Z,8.50
2023-03-10T04:30:00.488Z,7.88
2023-03-10T04:32:27.463Z,7.13
2023-03-10T04:34:54.438Z,8.07
2023-03-10T04:37:21.827Z,7.20
2023-03-10T04:39:48.589Z,8.52
2023-03-10T04:42:15.332Z,7.63
2023-03-10T04:44:42.085Z,7.30
2023-03-10T04:47:08.989Z,7.65
2023-03-10T04:49:37.574Z,8.30
2023-03-10T04:52:04.607Z,7.35
2023-03-10T04:54:31.404Z,7.75
2023-03-10T04:56:58.165Z,7.68
2023-03-10T04:59:24.987Z,7.65
2023-03-10T05:01:52.984Z,8.25
2023-03-10T05:04:19.809Z,7.10
2023-03-10T05:06:51.870Z,8.02
2023-03-10T05:09:18.981Z,8.15
2023-03-10T05:11:45.879Z,6.72
2023-03-10T05:14:13.772Z,7.95
2023-03-10T05:16:40.596Z,6.47
2023-03-10T05:19:07.524Z,7.22
2023-03-10T05:21:34.352Z,7.07
2023-03-10T05:24:02.039Z,7.30
2023-03-10T05:26:29.107Z,7.70
2023-03-10T05:28:56.682Z,7.15
2023-03-10T05:31:26.415Z,6.53
2023-03-10T05:33:54.956Z,6.65
2023-03-10T05:36:22.327Z,7.57
2023-03-10T05:38:49.652Z,7.35
2023-03-10T05:41:16.701Z,6.72
2023-03-10T05:43:44.448Z,6.93
2023-03-10T05:46:12.766Z,6.72
2023-03-10T05:48:40.267Z,6.85
2023-03-10T05:51:12.098Z,6.93
2023-03-10T05:53:40.340Z,6.20
2023-03-10T05:56:11.013Z,7.13
2023-03-10T05:58:38.520Z,6.93
2023-03-10T06:01:07.127Z,6.75
2023-03-10T06:03:35.219Z,6.35
2023-03-10T06:06:02.844Z,6.57
2023-03-10T06:08:31.764Z,6.55
2023-03-10T06:10:59.433Z,7.68
2023-03-10T06:13:26.824Z,8.07
2023-03-10T06:16:00.086Z,8.55
2023-03-10T06:18:28.527Z,7.53
2023-03-10T06:20:56.191Z,9.10
2023-03-10T06:23:25.812Z,6.80
2023-03-10T06:26:02.057Z,8.40
2023-03-10T06:28:33.341Z,7.88
2023-03-10T06:31:03.613Z,7.65
2023-03-10T06:33:31.207Z,6.35
2023-03-10T06:35:58.517Z,7.50
2023-03-10T06:38:27.364Z,6.75
2023-03-10T06:40:54.460Z,8.82
2023-03-10T06:43:21.282Z,7.75
2023-03-10T06:45:49.240Z,8.65
2023-03-10T06:48:16.582Z,8.05
2023-03-10T06:50:47.899Z,8.23
2023-03-10T06:53:17.677Z,8.55
2023-03-10T06:55:44.477Z,8.65
2023-03-10T06:58:11.382Z,7.97
2023-03-10T07:00:39.723Z,9.85
2023-03-10T07:03:06.789Z,8.38
2023-03-10T07:05:33.639Z,8.40
2023-03-10T07:08:00.372Z,8.38
2023-03-10T07:10:27.109Z,8.02
2023-03-10T07:12:56.725Z,9.32
2023-03-10T07:15:23.477Z,8.60
2023-03-10T07:17:50.482Z,8.63
2023-03-10T07:20:18.465Z,8.65
2023-03-10T07:22:45.508Z,11.23
2023-03-10T07:25:12.325Z,9.23
2023-03-10T07:27:39.299Z,8.68
2023-03-10T07:30:07.622Z,8.52
2023-03-10T07:32:34.387Z,8.23
2023-03-10T07:35:01.312Z,8.68
2023-03-10T07:37:28.080Z,9.25
2023-03-10T07:39:55.591Z,9.15
2023-03-10T07:42:23.430Z,8.52
2023-03-10T07:44:50.297Z,7.40
2023-03-10T07:47:17.085Z,7.85
2023-03-10T07:49:46.817Z,8.45
2023-03-10T07:52:18.186Z,8.10
2023-03-10T07:54:45.232Z,7.93
2023-03-10T07:57:13.820Z,9.68
2023-03-10T07:59:41.629Z,8.68
2023-03-10T08:02:13.536Z,8.85
2023-03-10T08:04:41.296Z,9.43
2023-03-10T08:07:09.153Z,7.95
2023-03-10T08:09:35.890Z,8.15
2023-03-10T08:12:03.904Z,8.38
2023-03-10T08:14:31.909Z,9.77
2023-03-10T08:16:59.605Z,10.63
2023-03-10T08:19:27.814Z,8.70
2023-03-10T08:21:57.480Z,10.90
2023-03-10T08:24:25.598Z,9.40
2023-03-10T08:26:52.376Z,10.23
2023-03-10T08:29:19.986Z,11.35
2023-03-10T08:31:46.838Z,11.32
2023-03-10T08:34:15.556Z,11.35
2023-03-10T08:36:43.753Z,12.32
2023-03-10T08:39:13.012Z,9.45
2023-03-10T08:41:49.112Z,10.02
2023-03-10T08:44:18.398Z,11.35
2023-03-10T08:46:47.941Z,10.30
2023-03-10T08:49:18.384Z,10.02
2023-03-10T08:51:45.342Z,13.35
2023-03-10T08:54:15.829Z,12.70
2023-03-10T08:56:42.970Z,10.55
2023-03-10T08:59:10.053Z,11.60
2023-03-10T09:01:38.207Z,10.75
2023-03-10T09:04:08.372Z,10.07
2023-03-10T09:06:36.049Z,11.05
2023-03-10T09:09:05.442Z,12.23
2023-03-10T09:11:38.721Z,12.52
2023-03-10T09:14:07.966Z,10.48
2023-03-10T09:16:35.010Z,10.95
2023-03-10T09:19:02.421Z,13.77
2023-03-10T09:21:33.417Z,10.10
2023-03-10T09:24:03.737Z,9.18
2023-03-10T09:26:30.797Z,10.73
2023-03-10T09:28:57.606Z,15.40
2023-03-10T09:31:36.578Z,11.50
2023-03-10T09:34:04.234Z,12.25
2023-03-10T09:36:31.422Z,11.77
2023-03-10T09:38:59.813Z,10.55
2023-03-10T09:42:37.420Z,12.55
2023-03-10T09:45:36.058Z,11.63
2023-03-10T09:48:30.525Z,11.80
2023-03-10T09:50:59.228Z,20.42
2023-03-10T09:53:59.824Z,15.30
2023-03-10T09:56:34.431Z,14.35
2023-03-10T09:59:14.788Z,13.43
2023-03-10T10:01:47.293Z,12.63
2023-03-10T10:04:36.614Z,11.23
2023-03-10T10:07:15.104Z,12.45
2023-03-10T10:09:58.673Z,12.85
2023-03-10T10:12:27.139Z,11.57
2023-03-10T10:15:14.162Z,11.10
2023-03-10T10:18:20.236Z,11.02
2023-03-10T10:20:53.898Z,11.52
2023-03-10T10:23:45.431Z,11.10
2023-03-10T10:26:23.618Z,9.57
2023-03-10T10:28:57.375Z,12.55
2023-03-10T10:31:31.930Z,10.88
2023-03-10T10:34:19.778Z,11.10
2023-03-10T10:36:56.245Z,10.23
2023-03-10T10:39:32.367Z,11.48
2023-03-10T10:42:32.725Z,11.07
2023-03-10T10:45:04.913Z,10.60
2023-03-10T10:47:49.773Z,11.63
2023-03-10T10:50:34.220Z,11.73
2023-03-10T10:53:15.660Z,13.32
2023-03-10T10:55:46.621Z,12.77
2023-03-10T10:58:33.591Z,13.40
2023-03-10T11:01:08.522Z,11.82
2023-03-10T11:03:40.316Z,12.95
2023-03-10T11:06:29.241Z,10.77
2023-03-10T11:09:18.743Z,10.07
2023-03-10T11:12:21.994Z,10.43
2023-03-10T11:15:21.441Z,10.30
2023-03-10T11:18:03.323Z,10.32
2023-03-10T11:21:00.383Z,10.27
2023-03-10T11:23:59.704Z,10.40
2023-03-10T11:27:01.673Z,10.05
2023-03-10T11:29:52.177Z,9.27
2023-03-10T11:32:41.190Z,9.90
2023-03-10T11:35:45.765Z,9.25
2023-03-10T11:38:37.323Z,8.68
2023-03-10T11:41:18.056Z,8.40
2023-03-10T11:43:56.755Z,8.80
2023-03-10T11:46:32.719Z,8.23
2023-03-10T11:49:11.040Z,10.63
2023-03-10T11:51:50.614Z,7.97
2023-03-10T11:54:32.583Z,8.48
2023-03-10T11:57:04.312Z,7.78
2023-03-10T11:59:36.147Z,8.45
2023-03-10T12:02:28.149Z,8.77
2023-03-10T12:05:10.723Z,10.10
2023-03-10T12:07:45.527Z,8.35
2023-03-10T12:10:12.305Z,9.07
2023-03-10T12:12:46.371Z,8.95
2023-03-10T12:15:31.304Z,9.20
2023-03-10T12:17:58.815Z,8.18
2023-03-10T12:20:29.380Z,8.95
2023-03-10T12:22:59.458Z,6.57
2023-03-10T12:25:29.164Z,6.10
2023-03-10T12:28:17.751Z,6.07
2023-03-10T12:31:10.692Z,5.57
2023-03-10T12:33:49.909Z,5.25
2023-03-10T12:36:39.469Z,4.20
2023-03-10T12:39:28.032Z,4.93
2023-03-10T12:41:56.877Z,4.97
2023-03-10T12:44:23.592Z,4.40
2023-03-10T12:47:09.156Z,4.10
2023-03-10T12:49:50.352Z,5.30
2023-03-10T12:52:48.089Z,6.85
2023-03-10T12:55:27.945Z,7.00
2023-03-10T12:58:21.933Z,6.65
2023-03-10T13:00:50.433Z,6.78
2023-03-10T13:03:38.097Z,6.15
2023-03-10T13:06:10.975Z,5.97
2023-03-10T13:08:50.424Z,5.40
2023-03-10T13:11:30.268Z,5.57
2023-03-10T13:14:10.093Z,5.50
2023-03-10T13:16:37.078Z,4.85
2023-03-10T13:19:04.313Z,5.13
2023-03-10T13:21:39.805Z,4.25
2023-03-10T13:24:31.172Z,4.15
2023-03-10T13:27:19.882Z,4.88
2023-03-10T13:30:00.008Z,4.65
2023-03-10T13:32:27.243Z,4.35
2023-03-10T13:34:54.258Z,5.80
2023-03-10T13:37:21.526Z,5.15
2023-03-10T13:39:48.402Z,4.05
2023-03-10T13:42:40.837Z,4.50
2023-03-10T13:45:23.418Z,4.90
2023-03-10T13:47:52.240Z,3.63
2023-03-10T13:50:19.404Z,5.70
2023-03-10T13:52:57.927Z,4.50
2023-03-10T13:55:25.861Z,4.53
2023-03-10T13:57:54.435Z,4.43
2023-03-10T14:00:26.043Z,4.95
2023-03-10T14:02:58.210Z,4.60
2023-03-10T14:05:49.225Z,5.38
2023-03-10T14:08:30.995Z,5.00
2023-03-10T14:11:33.786Z,5.13
2023-03-10T14:14:02.464Z,6.22
2023-03-10T14:16:54.867Z,4.43
2023-03-10T14:19:57.395Z,5.18
2023-03-10T14:22:43.391Z,4.30
2023-03-10T14:25:15.469Z,4.93
2023-03-10T14:27:58.508Z,4.38
2023-03-10T14:30:31.696Z,4.38
2023-03-10T14:33:01.090Z,4.53
2023-03-10T14:35:34.101Z,5.35
2023-03-10T14:38:03.784Z,6.07
2023-03-10T14:40:32.531Z,5.25
2023-03-10T14:43:02.185Z,5.45
2023-03-10T14:45:40.150Z,5.80
2023-03-10T14:48:19.125Z,5.10
2023-03-10T14:50:47.095Z,5.53
2023-03-10T14:53:26.059Z,4.63
2023-03-10T14:55:57.079Z,4.85
2023-03-10T14:58:29.993Z,6.18
2023-03-10T15:00:56.817Z,6.45
2023-03-10T15:03:26.151Z,7.55
2023-03-10T15:05:52.882Z,7.60
2023-03-10T15:08:19.675Z,7.85
2023-03-10T15:10:51.080Z,7.00
2023-03-10T15:13:24.115Z,6.47
2023-03-10T15:15:51.627Z,6.60
2023-03-10T15:18:22.287Z,6.82
2023-03-10T15:20:49.128Z,6.35
2023-03-10T15:23:22.502Z,5.90
2023-03-10T15:25:52.629Z,6.40
2023-03-10T15:28:20.146Z,5.28
2023-03-10T15:30:47.295Z,6.75
2023-03-10T15:33:14.461Z,6.10
2023-03-10T15:35:41.978Z,6.93
2023-03-10T15:38:14.569Z,6.82
2023-03-10T15:40:41.726Z,7.53
2023-03-10T15:43:12.146Z,7.07
2023-03-10T15:45:49.119Z,7.70
2023-03-10T15:48:16.170Z,8.50
2023-03-10T15:50:46.913Z,6.75
2023-03-10T15:53:14.487Z,8.30
2023-03-10T15:55:42.413Z,7.60
2023-03-10T15:58:13.018Z,8.93
2023-03-10T16:00:42.203Z,9.48
2023-03-10T16:03:09.021Z,8.45
2023-03-10T16:05:36.959Z,9.27
2023-03-10T16:08:06.320Z,9.18
2023-03-10T16:10:36.048Z,9.18
2023-03-10T16:13:03.266Z,9.15
2023-03-10T16:15:30.084Z,10.10
2023-03-10T16:17:57.769Z,8.63
2023-03-10T16:20:24.543Z,9.68
2023-03-10T16:22:51.338Z,9.55
2023-03-10T16:25:21.141Z,10.25
2023-03-10T16:27:48.360Z,9.27
2023-03-10T16:30:18.272Z,10.60
2023-03-10T16:32:47.143Z,8.82
2023-03-10T16:35:15.343Z,9.70
2023-03-10T16:37:42.586Z,10.07
2023-03-10T16:40:10.969Z,9.38
2023-03-10T16:42:37.848Z,9.57
2023-03-10T16:45:06.950Z,9.02
2023-03-10T16:47:34.080Z,10.88
2023-03-10T16:50:01.018Z,9.25
2023-03-10T16:52:27.832Z,10.05
2023-03-10T16:55:00.743Z,10.20
2023-03-10T16:57:27.544Z,9.00
2023-03-10T16:59:54.450Z,9.32
2023-03-10T17:02:21.220Z,11.60
2023-03-10T17:04:48.439Z,10.15
2023-03-10T17:07:15.167Z,10.98
2023-03-10T17:09:41.917Z,10.75
2023-03-10T17:12:08.887Z,10.57
2023-03-10T17:14:35.610Z,12.05
2023-03-10T17:17:02.531Z,12.27
2023-03-10T17:19:30.333Z,13.82
2023-03-10T17:21:58.909Z,13.10
2023-03-10T17:24:26.539Z,11.98
2023-03-10T17:26:53.684Z,11.82
2023-03-10T17:29:20.627Z,12.43
2023-03-10T17:31:50.413Z,12.18
2023-03-10T17:34:19.353Z,12.43
2023-03-10T17:36:46.732Z,13.38
2023-03-10T17:39:21.050Z,11.20
2023-03-10T17:41:48.847Z,13.23
2023-03-10T17:44:16.970Z,11.93
2023-03-10T17:46:43.913Z,13.57
2023-03-10T17:49:16.311Z,12.07
2023-03-10T17:51:44.835Z,12.10
2023-03-10T17:54:17.188Z,11.32
2023-03-10T17:56:44.047Z,11.43
2023-03-10T17:59:14.281Z,11.38
2023-03-10T18:01:43.985Z,10.90
2023-03-10T18:04:11.884Z,11.55
2023-03-10T18:06:38.819Z,11.90
2023-03-10T18:09:11.756Z,10.55
2023-03-10T18:11:38.866Z,12.10
2023-03-10T18:14:06.101Z,11.45
2023-03-10T18:16:37.954Z,11.05
2023-03-10T18:19:05.802Z,12.20
2023-03-10T18:21:32.739Z,10.43
2023-03-10T18:23:59.746Z,10.52
2023-03-10T18:26:33.665Z,10.50
2023-03-10T18:31:31.876Z,9.55
2023-03-10T18:34:00.131Z,10.93
2023-03-10T18:36:29.694Z,8.98
2023-03-10T18:38:56.849Z,10.95
2023-03-10T18:41:27.241Z,9.90
2023-03-10T18:43:54.001Z,9.52
2023-03-10T18:46:21.111Z,9.82
2023-03-10T18:48:48.737Z,11.23
2023-03-10T18:51:16.032Z,9.07
2023-03-10T18:53:42.778Z,9.40
2023-03-10T18:56:10.456Z,9.90
2023-03-10T18:58:40.235Z,10.40
2023-03-10T19:01:15.201Z,8.82
2023-03-10T19:03:42.951Z,8.95
2023-03-10T19:06:10.104Z,9.52
2023-03-10T19:08:38.966Z,11.23
2023-03-10T19:11:06.849Z,9.48
2023-03-10T19:13:34.243Z,8.95
2023-03-10T19:16:12.020Z,9.10
2023-03-10T19:18:39.523Z,8.52
2023-03-10T19:21:09.742Z,9.07
2023-03-10T19:23:37.143Z,8.57
2023-03-10T19:26:04.551Z,8.32
2023-03-10T19:28:31.426Z,8.77
2023-03-10T19:30:58.288Z,8.20
2023-03-10T19:33:25.157Z,9.05
2023-03-10T19:36:01.857Z,9.35
2023-03-10T19:38:28.906Z,9.32
2023-03-10T19:40:56.053Z,9.40
2023-03-10T19:43:25.168Z,9.13
2023-03-10T19:45:51.920Z,8.65
2023-03-10T19:48:18.724Z,8.85
2023-03-10T19:50:45.554Z,10.15
2023-03-10T19:53:12.384Z,11.75
2023-03-10T19:55:39.237Z,12.13
2023-03-10T19:58:06.091Z,14.52
2023-03-10T20:00:36.130Z,13.10
2023-03-10T20:03:03.296Z,13.32
2023-03-10T20:05:32.444Z,12.75
2023-03-10T20:08:00.538Z,13.23
2023-03-10T20:10:27.397Z,12.52
2023-03-10T20:12:54.303Z,13.27
2023-03-10T20:15:21.173Z,13.43
2023-03-10T20:17:48.550Z,12.25
2023-03-10T20:20:22.931Z,11.75
2023-03-10T20:22:49.931Z,12.95
2023-03-10T20:25:23.391Z,12.27
2023-03-10T20:27:52.523Z,12.50
2023-03-10T20:30:29.428Z,14.15
2023-03-10T20:32:59.532Z,12.60
2023-03-10T20:35:31.792Z,12.75
2023-03-10T20:38:00.336Z,13.73
2023-03-10T20:40:27.875Z,13.63
2023-03-10T20:42:59.444Z,14.50
2023-03-10T20:45:27.027Z,12.90
2023-03-10T20:47:53.852Z,12.98
2023-03-10T20:50:28.168Z,12.52
2023-03-10T20:52:54.898Z,12.95
2023-03-10T20:55:28.349Z,13.48
2023-03-10T20:57:59.183Z,12.88
2023-03-10T21:00:29.554Z,13.77
2023-03-10T21:02:57.425Z,14.95
2023-03-10T21:05:26.476Z,14.35
2023-03-10T21:07:57.123Z,13.48
2023-03-10T21:10:26.173Z,15.82
2023-03-10T21:12:53.074Z,15.85
2023-03-10T21:15:20.401Z,13.85
2023-03-10T21:17:49.324Z,14.90
2023-03-10T21:20:20.811Z,15.50
2023-03-10T21:22:52.750Z,14.98
2023-03-10T21:25:24.539Z,14.75
2023-03-10T21:27:58.627Z,14.20
2023-03-10T21:30:29.263Z,14.52
2023-03-10T21:33:03.772Z,13.60
2023-03-10T21:35:34.207Z,16.00
2023-03-10T21:38:01.136Z,15.90
2023-03-10T21:40:28.334Z,13.55
2023-03-10T21:42:55.471Z,13.65
2023-03-10T21:45:24.199Z,14.30
2023-03-10T21:47:53.600Z,14.02
2023-03-10T21:50:21.191Z,13.38
2023-03-10T21:52:50.661Z,12.95
2023-03-10T21:55:24.067Z,13.82
2023-03-10T21:57:51.371Z,12.02
2023-03-10T22:00:23.065Z,12.50
2023-03-10T22:02:51.577Z,12.90
2023-03-10T22:05:20.382Z,13.43
2023-03-10T22:07:47.426Z,13.70
2023-03-10T22:10:16.117Z,12.43
2023-03-10T22:12:43.015Z,13.52
2023-03-10T22:15:16.851Z,13.43
2023-03-10T22:17:43.742Z,13.57
2023-03-10T22:20:18.291Z,13.77
2023-03-10T22:22:45.226Z,13.98
2023-03-10T22:25:12.592Z,13.38
2023-03-10T22:27:39.456Z,13.93
2023-03-10T22:30:08.174Z,12.23
2023-03-10T22:32:35.421Z,13.52
2023-03-10T22:35:02.861Z,12.80
2023-03-10T22:37:29.572Z,14.25
2023-03-10T22:39:56.532Z,12.23
2023-03-10T22:42:23.318Z,12.48
2023-03-10T22:44:50.045Z,13.63
2023-03-10T22:47:17.803Z,13.63
2023-03-10T22:49:44.795Z,14.23
2023-03-10T22:52:11.629Z,13.23
2023-03-10T22:54:38.584Z,11.75
2023-03-10T22:57:05.769Z,13.93
2023-03-10T22:59:32.577Z,13.98
2023-03-10T23:01:59.352Z,12.43
2023-03-10T23:04:26.133Z,12.32
2023-03-10T23:06:53.025Z,14.20
2023-03-10T23:09:19.808Z,15.57
2023-03-10T23:11:46.924Z,12.55
2023-03-10T23:14:13.712Z,14.90
2023-03-10T23:16:40.568Z,15.43
2023-03-10T23:19:08.798Z,15.73
2023-03-10T23:21:36.286Z,15.07
2023-03-10T23:24:03.677Z,13.55
2023-03-10T23:26:31.375Z,13.95
2023-03-10T23:28:58.244Z,15.15
2023-03-10T23:31:25.055Z,17.05
2023-03-10T23:33:51.875Z,15.18
2023-03-10T23:36:19.030Z,15.57
2023-03-10T23:38:45.815Z,15.43
2023-03-10T23:41:13.042Z,13.82
2023-03-10T23:43:39.850Z,13.93
2023-03-10T23:46:09.554Z,13.25
2023-03-10T23:48:36.451Z,13.82
2023-03-10T23:51:03.754Z,15.35
2023-03-10T23:53:31.595Z,12.60
2023-03-10T23:56:00.021Z,14.15
2023-03-10T23:58:28.122Z,13.48
